Time;durP1;ratioP1;P1;durP2;ratioP2;P2;SDS_P1;SDS_P2;PMS_P1;PMS_P2;Temp;Humidity;BMP_temperature;BMP_pressure;BME280_temperature;BME280_humidity;BME280_pressure;Samples;Min_cycle;Max_cycle;Signal;HPM_P1;HPM_P2
2023/06/22 00:00:44;;;;;;;;;3.75;3.25;;;;;;;;5087612;27;46864;-84
2023/06/22 00:03:09;;;;;;;;;4.50;3.75;;;;;;;;5092992;27;45527;-85
2023/06/22 00:05:38;;;;;;;;;6.00;4.00;;;;;;;;5099098;27;45331;-87
2023/06/22 00:08:07;;;;;;;;;4.00;3.75;;;;;;;;5093052;27;46137;-86
2023/06/22 00:10:35;;;;;;;;;3.75;2.25;;;;;;;;5069374;27;48113;-87
2023/06/22 00:13:01;;;;;;;;;5.00;2.75;;;;;;;;5072593;27;45696;-84
2023/06/22 00:15:30;;;;;;;;;3.50;3.50;;;;;;;;5081995;27;45624;-85
2023/06/22 00:17:57;;;;;;;;;4.50;4.50;;;;;;;;5065069;28;46716;-85
2023/06/22 00:20:22;;;;;;;;;3.00;3.00;;;;;;;;5064304;28;46845;-86
2023/06/22 00:22:48;;;;;;;;;3.00;3.00;;;;;;;;5079814;28;45481;-85
2023/06/22 00:25:13;;;;;;;;;4.50;4.50;;;;;;;;5059001;28;45691;-85
2023/06/22 00:27:39;;;;;;;;;4.50;4.00;;;;;;;;5062993;28;46905;-84
2023/06/22 00:30:05;;;;;;;;;3.00;3.00;;;;;;;;5080268;28;45484;-84
2023/06/22 00:32:32;;;;;;;;;2.25;2.25;;;;;;;;5079826;27;45653;-83
2023/06/22 00:35:00;;;;;;;;;7.75;4.25;;;;;;;;5061047;28;45501;-85
2023/06/22 00:37:29;;;;;;;;;3.33;3.33;;;;;;;;5081368;28;45519;-85
2023/06/22 00:39:55;;;;;;;;;4.25;4.25;;;;;;;;5080101;28;46351;-84
2023/06/22 00:42:20;;;;;;;;;7.25;3.50;;;;;;;;5074636;28;46285;-84
2023/06/22 00:44:46;;;;;;;;;2.00;2.00;;;;;;;;5067636;27;45407;-84
2023/06/22 00:47:13;;;;;;;;;3.00;3.00;;;;;;;;5095298;27;45398;-84
2023/06/22 00:49:38;;;;;;;;;2.50;2.50;;;;;;;;5091733;27;45528;-83
2023/06/22 00:52:09;;;;;;;;;3.00;3.00;;;;;;;;5093390;27;45509;-84
2023/06/22 00:54:35;;;;;;;;;4.00;4.00;;;;;;;;5080524;27;45368;-83
2023/06/22 00:57:02;;;;;;;;;4.00;3.00;;;;;;;;5083830;28;45749;-83
2023/06/22 00:59:32;;;;;;;;;6.25;5.00;;;;;;;;5069303;28;47412;-83
2023/06/22 01:01:57;;;;;;;;;5.25;3.50;;;;;;;;5066856;28;45455;-83
2023/06/22 01:04:27;;;;;;;;;5.25;3.75;;;;;;;;5089414;27;45668;-82
2023/06/22 01:07:24;;;;;;;;;5.00;3.25;;;;;;;;5085058;27;45304;-82
2023/06/22 01:10:03;;;;;;;;;2.75;2.75;;;;;;;;5074199;27;48494;-83
2023/06/22 01:12:30;;;;;;;;;3.25;3.25;;;;;;;;5083391;27;45376;-82
2023/06/22 01:15:08;;;;;;;;;2.00;2.00;;;;;;;;5079999;27;45907;-86
2023/06/22 01:17:34;;;;;;;;;2.75;2.75;;;;;;;;5082053;27;45419;-83
2023/06/22 01:20:05;;;;;;;;;3.00;2.25;;;;;;;;5076537;27;46400;-83
2023/06/22 01:22:38;;;;;;;;;2.00;2.00;;;;;;;;5078347;27;45139;-85
2023/06/22 01:25:17;;;;;;;;;4.00;4.00;;;;;;;;5069472;28;45409;-85
2023/06/22 01:28:00;;;;;;;;;3.50;2.25;;;;;;;;5083492;27;45874;-85
2023/06/22 01:30:27;;;;;;;;;2.75;2.75;;;;;;;;5072779;28;45461;-85
2023/06/22 01:32:55;;;;;;;;;6.00;5.00;;;;;;;;5071701;28;45778;-85
2023/06/22 01:35:24;;;;;;;;;5.50;3.75;;;;;;;;5079910;27;45401;-84
2023/06/22 01:37:52;;;;;;;;;7.67;3.67;;;;;;;;5081186;27;45545;-85
2023/06/22 01:40:19;;;;;;;;;2.67;2.67;;;;;;;;5081117;27;48345;-84
2023/06/22 01:42:45;;;;;;;;;3.75;3.75;;;;;;;;5064746;27;45535;-85
2023/06/22 01:45:11;;;;;;;;;3.75;3.75;;;;;;;;5077974;27;45299;-82
2023/06/22 01:47:37;;;;;;;;;3.75;3.00;;;;;;;;5081768;27;45429;-81
2023/06/22 01:50:02;;;;;;;;;7.00;5.00;;;;;;;;5085282;27;47084;-83
2023/06/22 01:52:33;;;;;;;;;5.50;4.00;;;;;;;;5092086;27;45449;-84
2023/06/22 01:54:59;;;;;;;;;3.25;3.25;;;;;;;;5087459;27;45511;-85
2023/06/22 01:57:27;;;;;;;;;6.25;4.00;;;;;;;;5088464;27;45424;-85
2023/06/22 02:00:23;;;;;;;;;4.25;4.25;;;;;;;;5098515;27;46951;-86
2023/06/22 02:02:53;;;;;;;;;4.00;4.00;;;;;;;;5071101;27;45490;-82
2023/06/22 02:05:19;;;;;;;;;5.25;4.75;;;;;;;;5090248;27;45426;-82
2023/06/22 02:08:08;;;;;;;;;2.25;2.25;;;;;;;;5085111;27;45541;-85
2023/06/22 02:10:34;;;;;;;;;2.00;1.00;;;;;;;;5075777;27;46972;-85
2023/06/22 02:13:01;;;;;;;;;6.00;4.75;;;;;;;;5107868;27;45969;-85
2023/06/22 02:15:26;;;;;;;;;5.00;3.50;;;;;;;;5103023;27;45559;-85
2023/06/22 02:17:52;;;;;;;;;7.50;5.25;;;;;;;;5087842;27;46080;-86
2023/06/22 02:20:17;;;;;;;;;5.00;5.00;;;;;;;;5086166;27;46102;-83
2023/06/22 02:22:43;;;;;;;;;4.00;3.50;;;;;;;;5082439;28;45183;-85
2023/06/22 02:25:08;;;;;;;;;4.75;4.00;;;;;;;;5092136;27;45775;-84
2023/06/22 02:27:36;;;;;;;;;4.00;4.00;;;;;;;;5087880;27;45389;-85
2023/06/22 02:30:05;;;;;;;;;5.67;5.67;;;;;;;;5080789;28;48355;-86
2023/06/22 02:32:34;;;;;;;;;10.00;3.33;;;;;;;;5079948;28;45589;-82
2023/06/22 02:34:59;;;;;;;;;6.33;5.33;;;;;;;;5086668;27;45395;-82
2023/06/22 02:37:25;;;;;;;;;3.00;3.00;;;;;;;;5085279;27;45507;-84
2023/06/22 02:39:50;;;;;;;;;4.00;4.00;;;;;;;;5083839;27;45632;-85
2023/06/22 02:42:22;;;;;;;;;6.00;5.00;;;;;;;;5082974;27;45462;-84
2023/06/22 02:44:47;;;;;;;;;6.25;4.00;;;;;;;;5097761;27;45575;-84
2023/06/22 02:47:13;;;;;;;;;5.25;4.00;;;;;;;;5089361;27;45858;-84
2023/06/22 02:49:43;;;;;;;;;7.50;4.75;;;;;;;;5077591;27;47144;-83
2023/06/22 02:52:08;;;;;;;;;6.67;5.67;;;;;;;;5086833;27;45326;-83
2023/06/22 02:54:34;;;;;;;;;5.00;5.00;;;;;;;;5086844;27;45469;-84
2023/06/22 02:57:04;;;;;;;;;4.33;4.00;;;;;;;;5083325;27;45417;-84
2023/06/22 02:59:31;;;;;;;;;7.00;6.00;;;;;;;;5078758;27;46727;-83
2023/06/22 03:01:57;;;;;;;;;7.00;5.25;;;;;;;;5095795;27;45738;-83
2023/06/22 03:04:22;;;;;;;;;6.00;5.00;;;;;;;;5089605;27;45694;-83
2023/06/22 03:06:50;;;;;;;;;3.00;2.25;;;;;;;;5091646;27;45411;-84
2023/06/22 03:09:20;;;;;;;;;5.00;4.67;;;;;;;;5072570;27;45760;-85
2023/06/22 03:11:46;;;;;;;;;6.00;4.67;;;;;;;;5087717;27;45495;-85
2023/06/22 03:14:31;;;;;;;;;5.00;3.33;;;;;;;;5087836;27;45461;-87
2023/06/22 03:20:13;;;;;;;;;5.67;4.33;;;;;;;;5059964;27;45505;-85
2023/06/22 03:23:10;;;;;;;;;6.33;5.33;;;;;;;;5088986;27;44836;-85
2023/06/22 03:25:50;;;;;;;;;6.67;5.00;;;;;;;;5083152;27;45516;-85
2023/06/22 03:28:20;;;;;;;;;7.00;3.33;;;;;;;;5092649;27;45767;-83
2023/06/22 03:30:45;;;;;;;;;4.33;3.67;;;;;;;;5087740;27;47966;-85
2023/06/22 03:33:11;;;;;;;;;7.00;5.33;;;;;;;;5088593;27;45421;-82
2023/06/22 03:35:45;;;;;;;;;6.67;4.67;;;;;;;;5083364;27;45536;-86
2023/06/22 03:38:14;;;;;;;;;7.00;4.00;;;;;;;;5095314;27;45434;-85
2023/06/22 03:40:42;;;;;;;;;4.33;4.33;;;;;;;;5070870;27;45453;-88
2023/06/22 03:43:08;;;;;;;;;7.00;7.00;;;;;;;;5084827;27;45350;-86
2023/06/22 03:45:35;;;;;;;;;8.33;6.00;;;;;;;;5087557;27;45706;-86
2023/06/22 03:48:04;;;;;;;;;6.00;6.00;;;;;;;;5087467;27;45354;-85
2023/06/22 03:50:33;;;;;;;;;6.00;6.00;;;;;;;;5083866;28;45963;-86
2023/06/22 03:53:08;;;;;;;;;5.33;5.33;;;;;;;;5088478;27;45367;-85
2023/06/22 03:55:37;;;;;;;;;7.00;6.00;;;;;;;;5100343;27;45344;-85
2023/06/22 03:58:05;;;;;;;;;7.33;5.00;;;;;;;;5083181;27;45626;-85
2023/06/22 04:00:34;;;;;;;;;9.25;6.25;;;;;;;;5090810;27;46844;-85
2023/06/22 04:03:07;;;;;;;;;7.00;6.00;;;;;;;;5094326;27;45457;-86
2023/06/22 04:05:32;;;;;;;;;12.33;10.00;;;;;;;;5082255;27;44806;-85
2023/06/22 04:08:02;;;;;;;;;10.00;8.00;;;;;;;;5083773;28;45739;-84
2023/06/22 04:10:30;;;;;;;;;7.50;6.25;;;;;;;;5084247;27;46164;-87
2023/06/22 04:12:56;;;;;;;;;11.67;11.67;;;;;;;;5097843;27;45805;-85
2023/06/22 04:16:01;;;;;;;;;;;;;;;;;;;;;
2023/06/22 04:18:41;;;;;;;;;9.33;7.67;;;;;;;;5075080;27;73718;-83
2023/06/22 04:21:07;;;;;;;;;10.33;7.00;;;;;;;;5084235;28;46781;-84
2023/06/22 04:23:36;;;;;;;;;9.00;9.00;;;;;;;;5077712;28;45353;-84
2023/06/22 04:26:02;;;;;;;;;14.33;13.33;;;;;;;;5079295;27;45620;-83
2023/06/22 04:28:35;;;;;;;;;10.33;8.00;;;;;;;;5082566;27;45521;-85
2023/06/22 04:31:09;;;;;;;;;16.67;12.00;;;;;;;;5084340;27;45514;-85
2023/06/22 04:33:35;;;;;;;;;8.67;8.67;;;;;;;;5090577;27;45566;-82
2023/06/22 04:36:01;;;;;;;;;9.67;9.33;;;;;;;;5088095;27;45425;-85
2023/06/22 04:38:46;;;;;;;;;11.33;10.33;;;;;;;;5086748;28;46792;-83
2023/06/22 04:41:23;;;;;;;;;9.33;8.67;;;;;;;;5092793;27;45393;-86
2023/06/22 04:43:53;;;;;;;;;12.33;9.33;;;;;;;;5083156;27;45558;-83
2023/06/22 04:46:19;;;;;;;;;8.67;6.67;;;;;;;;5088880;27;45351;-83
2023/06/22 04:48:53;;;;;;;;;12.00;11.00;;;;;;;;5079598;27;45806;-86
2023/06/22 04:51:47;;;;;;;;;7.33;7.33;;;;;;;;5091393;27;46678;-92
2023/06/22 04:54:55;;;;;;;;;16.00;12.00;;;;;;;;5101000;27;45477;-83
2023/06/22 04:57:34;;;;;;;;;10.67;8.67;;;;;;;;5052179;22;45770;-72
2023/06/22 05:00:12;;;;;;;;;9.67;8.00;;;;;;;;5074575;27;47271;-71
2023/06/22 05:02:38;;;;;;;;;11.67;9.33;;;;;;;;5092667;27;46203;-70
2023/06/22 05:05:06;;;;;;;;;14.67;12.00;;;;;;;;5090447;27;45784;-71
2023/06/22 05:07:33;;;;;;;;;15.33;11.00;;;;;;;;5074982;27;45401;-75
2023/06/22 05:09:59;;;;;;;;;11.67;10.33;;;;;;;;5085130;27;45405;-71
2023/06/22 05:12:24;;;;;;;;;17.00;13.33;;;;;;;;5069847;27;48251;-73
2023/06/22 05:14:58;;;;;;;;;11.33;9.00;;;;;;;;5076107;27;45495;-73
2023/06/22 05:17:23;;;;;;;;;15.67;9.67;;;;;;;;5094351;27;45851;-70
2023/06/22 05:19:49;;;;;;;;;10.67;10.67;;;;;;;;5090135;27;45713;-71
2023/06/22 05:22:14;;;;;;;;;19.00;15.00;;;;;;;;5093334;27;45420;-69
2023/06/22 05:24:40;;;;;;;;;14.67;12.33;;;;;;;;5091160;27;45674;-70
2023/06/22 05:27:05;;;;;;;;;18.00;14.67;;;;;;;;5080852;27;45615;-71
2023/06/22 05:29:30;;;;;;;;;10.33;10.33;;;;;;;;5099235;27;46558;-70
2023/06/22 05:31:56;;;;;;;;;9.67;9.67;;;;;;;;5095319;27;46489;-71
2023/06/22 05:34:21;;;;;;;;;10.33;8.33;;;;;;;;5095517;27;45567;-76
2023/06/22 05:36:46;;;;;;;;;11.67;9.67;;;;;;;;5075235;27;45319;-71
2023/06/22 05:39:13;;;;;;;;;14.67;13.33;;;;;;;;5097719;27;45702;-71
2023/06/22 05:41:38;;;;;;;;;16.33;15.67;;;;;;;;5099484;27;45455;-71
2023/06/22 05:44:04;;;;;;;;;33.00;25.00;;;;;;;;5095974;27;45368;-78
2023/06/22 05:46:29;;;;;;;;;21.67;19.00;;;;;;;;5096088;27;45852;-72
2023/06/22 05:48:54;;;;;;;;;22.33;17.33;;;;;;;;5088132;27;45643;-69
2023/06/22 05:51:20;;;;;;;;;13.00;13.00;;;;;;;;5078908;27;48521;-70
2023/06/22 05:53:49;;;;;;;;;19.00;17.00;;;;;;;;5077407;27;45862;-71
2023/06/22 05:56:14;;;;;;;;;20.33;18.67;;;;;;;;5096823;27;45825;-70
2023/06/22 05:58:39;;;;;;;;;21.00;18.00;;;;;;;;5098780;27;45586;-69
2023/06/22 06:01:05;;;;;;;;;26.00;20.00;;;;;;;;5102531;27;46578;-73
2023/06/22 06:03:33;;;;;;;;;19.00;18.00;;;;;;;;5093495;27;45747;-70
2023/06/22 06:05:58;;;;;;;;;22.67;16.67;;;;;;;;5077377;27;45831;-71
2023/06/22 06:08:23;;;;;;;;;21.67;19.00;;;;;;;;5114767;27;45365;-76
2023/06/22 06:10:49;;;;;;;;;21.33;18.33;;;;;;;;5085820;27;46207;-74
2023/06/22 06:13:14;;;;;;;;;18.00;18.00;;;;;;;;5087708;27;45588;-77
2023/06/22 06:15:39;;;;;;;;;27.67;24.33;;;;;;;;5101602;27;46330;-78
2023/06/22 06:18:06;;;;;;;;;23.67;22.33;;;;;;;;5101919;27;45740;-77
2023/06/22 06:20:31;;;;;;;;;17.67;17.00;;;;;;;;5110819;27;45874;-75
2023/06/22 06:22:57;;;;;;;;;31.67;25.67;;;;;;;;5100533;27;45822;-74
2023/06/22 06:25:22;;;;;;;;;25.33;20.33;;;;;;;;5087618;27;45400;-75
2023/06/22 06:27:49;;;;;;;;;17.00;15.67;;;;;;;;5091727;27;45857;-74
2023/06/22 06:30:15;;;;;;;;;28.00;20.33;;;;;;;;5106724;27;45665;-75
2023/06/22 06:32:41;;;;;;;;;28.00;25.67;;;;;;;;5097776;27;45375;-74
2023/06/22 06:35:06;;;;;;;;;31.33;27.00;;;;;;;;5079001;27;45931;-76
2023/06/22 06:37:33;;;;;;;;;25.33;18.67;;;;;;;;5075427;27;45901;-76
2023/06/22 06:39:58;;;;;;;;;32.00;26.67;;;;;;;;5095277;27;46435;-76
2023/06/22 06:42:24;;;;;;;;;30.00;27.00;;;;;;;;5093926;27;45486;-75
2023/06/22 06:44:49;;;;;;;;;30.33;27.67;;;;;;;;5095966;27;45544;-78
2023/06/22 06:47:15;;;;;;;;;32.33;26.33;;;;;;;;5075838;27;46164;-78
2023/06/22 06:49:40;;;;;;;;;33.33;23.67;;;;;;;;5101041;27;45797;-74
2023/06/22 06:52:06;;;;;;;;;28.00;24.67;;;;;;;;5091573;27;45733;-76
2023/06/22 06:54:31;;;;;;;;;27.67;26.00;;;;;;;;5090154;27;45753;-74
2023/06/22 06:56:56;;;;;;;;;30.00;25.67;;;;;;;;5102977;27;45568;-80
2023/06/22 06:59:21;;;;;;;;;29.33;24.33;;;;;;;;5094054;27;46348;-74
2023/06/22 07:01:48;;;;;;;;;31.00;30.00;;;;;;;;5088628;27;45677;-73
2023/06/22 07:04:14;;;;;;;;;31.00;24.00;;;;;;;;5087644;27;46002;-70
2023/06/22 07:06:39;;;;;;;;;28.67;25.33;;;;;;;;5093062;27;45663;-72
2023/06/22 07:09:04;;;;;;;;;26.00;21.67;;;;;;;;5089336;27;46052;-71
2023/06/22 07:11:30;;;;;;;;;32.67;30.33;;;;;;;;5093763;27;45458;-70
2023/06/22 07:13:55;;;;;;;;;39.33;31.00;;;;;;;;5078769;27;45651;-72
2023/06/22 07:16:21;;;;;;;;;31.00;30.67;;;;;;;;5068754;27;45571;-73
2023/06/22 07:18:46;;;;;;;;;33.33;24.67;;;;;;;;5081730;27;45594;-70
2023/06/22 07:21:11;;;;;;;;;24.00;19.67;;;;;;;;5076341;27;45582;-71
2023/06/22 07:23:36;;;;;;;;;35.33;32.00;;;;;;;;5082354;27;45389;-71
2023/06/22 07:26:02;;;;;;;;;26.00;24.33;;;;;;;;5094058;27;45651;-69
2023/06/22 07:28:27;;;;;;;;;34.00;27.33;;;;;;;;5075424;27;46982;-70
2023/06/22 07:30:53;;;;;;;;;38.67;32.67;;;;;;;;5082731;27;45463;-71
2023/06/22 07:33:19;;;;;;;;;28.67;25.33;;;;;;;;5102750;27;43016;-70
2023/06/22 07:35:44;;;;;;;;;34.33;24.67;;;;;;;;5091893;27;45559;-72
2023/06/22 07:38:10;;;;;;;;;22.67;22.67;;;;;;;;5093021;27;45847;-71
2023/06/22 07:40:35;;;;;;;;;30.00;29.00;;;;;;;;5088944;27;45446;-70
2023/06/22 07:43:01;;;;;;;;;37.67;33.00;;;;;;;;5063558;27;45528;-71
2023/06/22 07:45:27;;;;;;;;;36.33;28.00;;;;;;;;5089406;27;45442;-72
2023/06/22 07:47:52;;;;;;;;;30.33;28.67;;;;;;;;5073773;27;47157;-70
2023/06/22 07:50:17;;;;;;;;;37.00;31.33;;;;;;;;5095078;27;45384;-71
2023/06/22 07:52:43;;;;;;;;;28.67;23.67;;;;;;;;5083846;27;46601;-73
2023/06/22 07:55:08;;;;;;;;;30.33;27.33;;;;;;;;5080142;27;45856;-73
2023/06/22 07:57:33;;;;;;;;;26.67;25.33;;;;;;;;5084816;27;45844;-71
2023/06/22 08:00:06;;;;;;;;;35.00;25.33;;;;;;;;5091208;27;45676;-74
2023/06/22 08:02:31;;;;;;;;;25.67;24.33;;;;;;;;5071076;27;47467;-74
2023/06/22 08:04:56;;;;;;;;;32.00;26.33;;;;;;;;5091266;27;45531;-72
2023/06/22 08:07:23;;;;;;;;;23.00;22.33;;;;;;;;5089905;27;45695;-71
2023/06/22 08:09:49;;;;;;;;;31.33;27.67;;;;;;;;5086116;27;45871;-72
2023/06/22 08:12:14;;;;;;;;;24.33;22.00;;;;;;;;5082774;27;45464;-72
2023/06/22 08:14:41;;;;;;;;;27.67;25.00;;;;;;;;5090842;27;45421;-72
2023/06/22 08:17:07;;;;;;;;;27.33;26.33;;;;;;;;5094733;27;45870;-72
2023/06/22 08:19:32;;;;;;;;;25.00;22.00;;;;;;;;5086654;27;45885;-76
2023/06/22 08:21:57;;;;;;;;;23.67;21.67;;;;;;;;5093672;27;45767;-73
2023/06/22 08:24:23;;;;;;;;;25.67;25.00;;;;;;;;5076768;27;46159;-72
2023/06/22 08:26:51;;;;;;;;;24.33;20.00;;;;;;;;5093214;27;45329;-75
2023/06/22 08:29:16;;;;;;;;;36.33;31.33;;;;;;;;5090282;27;45826;-75
2023/06/22 08:31:41;;;;;;;;;24.67;21.00;;;;;;;;5099328;27;45718;-75
2023/06/22 08:34:07;;;;;;;;;34.00;26.67;;;;;;;;5096261;27;45921;-74
2023/06/22 08:36:37;;;;;;;;;29.00;22.00;;;;;;;;5091875;27;45579;-76
2023/06/22 08:39:03;;;;;;;;;31.00;28.67;;;;;;;;5086605;27;45510;-74
2023/06/22 08:41:28;;;;;;;;;28.67;24.67;;;;;;;;5084830;27;45891;-73
2023/06/22 08:43:54;;;;;;;;;29.67;24.33;;;;;;;;5098946;27;45703;-74
2023/06/22 08:46:23;;;;;;;;;32.00;24.67;;;;;;;;5093908;27;46215;-73
2023/06/22 08:48:48;;;;;;;;;21.00;21.00;;;;;;;;5092766;27;45355;-74
2023/06/22 08:51:13;;;;;;;;;25.67;22.00;;;;;;;;5077436;27;46438;-75
2023/06/22 08:53:39;;;;;;;;;27.67;24.33;;;;;;;;5087752;27;45832;-78
2023/06/22 08:56:04;;;;;;;;;22.33;20.67;;;;;;;;5072695;27;47437;-77
2023/06/22 08:58:30;;;;;;;;;29.00;23.00;;;;;;;;5074197;27;45498;-78
2023/06/22 09:00:55;;;;;;;;;29.00;26.33;;;;;;;;5095836;27;45335;-77
2023/06/22 09:03:20;;;;;;;;;26.67;24.00;;;;;;;;5097390;27;45517;-77
2023/06/22 09:05:46;;;;;;;;;13.67;13.67;;;;;;;;5078503;27;48198;-75
2023/06/22 09:08:11;;;;;;;;;26.67;24.00;;;;;;;;5095152;27;45378;-76
2023/06/22 09:10:36;;;;;;;;;29.33;22.67;;;;;;;;5101949;27;45443;-75
2023/06/22 09:13:01;;;;;;;;;21.33;20.33;;;;;;;;5076730;27;45544;-74
2023/06/22 09:15:27;;;;;;;;;22.67;18.67;;;;;;;;5068699;27;47638;-75
2023/06/22 09:17:54;;;;;;;;;18.33;17.00;;;;;;;;5092875;27;45398;-74
2023/06/22 09:20:19;;;;;;;;;19.33;14.33;;;;;;;;5096449;27;45732;-72
2023/06/22 09:22:45;;;;;;;;;20.67;18.67;;;;;;;;5086466;27;45739;-74
2023/06/22 09:25:10;;;;;;;;;18.67;17.33;;;;;;;;5085642;27;45903;-73
2023/06/22 09:27:36;;;;;;;;;16.67;16.33;;;;;;;;5087893;27;45511;-73
2023/06/22 09:30:02;;;;;;;;;20.67;16.33;;;;;;;;5078175;27;45797;-75
2023/06/22 09:32:27;;;;;;;;;17.67;16.33;;;;;;;;5095815;27;45535;-74
2023/06/22 09:34:55;;;;;;;;;20.33;18.33;;;;;;;;5081751;27;46162;-75
2023/06/22 09:37:20;;;;;;;;;23.33;19.67;;;;;;;;5062028;27;45524;-74
2023/06/22 09:39:46;;;;;;;;;19.33;17.00;;;;;;;;5071026;27;45760;-74
2023/06/22 09:42:13;;;;;;;;;16.00;14.33;;;;;;;;5073088;27;45479;-76
2023/06/22 09:44:38;;;;;;;;;19.00;17.33;;;;;;;;5082485;27;45430;-76
2023/06/22 09:47:03;;;;;;;;;11.67;11.00;;;;;;;;5086689;27;45309;-75
2023/06/22 09:49:29;;;;;;;;;20.33;19.00;;;;;;;;5070241;27;45674;-76
2023/06/22 09:51:54;;;;;;;;;18.67;15.00;;;;;;;;5090986;27;45788;-76
2023/06/22 09:54:19;;;;;;;;;14.33;13.33;;;;;;;;5089426;27;46271;-75
2023/06/22 09:56:45;;;;;;;;;14.67;14.00;;;;;;;;5070941;27;45870;-76
2023/06/22 09:59:10;;;;;;;;;23.00;19.67;;;;;;;;5079173;27;45456;-76
2023/06/22 10:01:35;;;;;;;;;16.67;16.33;;;;;;;;5089020;27;45682;-76
2023/06/22 10:04:02;;;;;;;;;18.33;17.33;;;;;;;;5080412;27;45487;-75
2023/06/22 10:06:27;;;;;;;;;20.67;17.33;;;;;;;;5069629;27;45496;-74
2023/06/22 10:08:52;;;;;;;;;16.33;14.67;;;;;;;;5083137;27;45666;-76
2023/06/22 10:11:17;;;;;;;;;13.00;12.67;;;;;;;;5091104;27;45512;-76
2023/06/22 10:13:43;;;;;;;;;17.67;15.00;;;;;;;;5087686;27;45423;-76
2023/06/22 10:16:08;;;;;;;;;17.33;14.67;;;;;;;;5081998;27;45469;-75
2023/06/22 10:18:33;;;;;;;;;17.33;12.00;;;;;;;;5070470;27;45447;-76
2023/06/22 10:21:00;;;;;;;;;16.00;11.33;;;;;;;;5078293;27;45400;-75
2023/06/22 10:23:25;;;;;;;;;20.67;15.33;;;;;;;;5088297;27;45713;-74
2023/06/22 10:25:50;;;;;;;;;8.67;8.67;;;;;;;;5092235;27;45523;-75
2023/06/22 10:28:15;;;;;;;;;15.33;12.67;;;;;;;;5095981;27;45738;-76
2023/06/22 10:30:41;;;;;;;;;16.67;15.33;;;;;;;;5086702;27;45896;-77
2023/06/22 10:33:07;;;;;;;;;13.33;13.33;;;;;;;;5088774;27;45413;-77
2023/06/22 10:35:32;;;;;;;;;18.33;13.33;;;;;;;;5060563;27;46056;-77
2023/06/22 10:37:59;;;;;;;;;15.00;12.33;;;;;;;;5078233;27;45963;-77
2023/06/22 10:40:24;;;;;;;;;17.00;13.33;;;;;;;;5098401;27;45854;-76
2023/06/22 10:42:50;;;;;;;;;13.50;11.50;;;;;;;;5077970;27;46420;-77
2023/06/22 10:45:15;;;;;;;;;15.33;12.67;;;;;;;;5085549;27;45696;-75
2023/06/22 10:47:53;;;;;;;;;14.00;14.00;;;;;;;;5084688;27;45824;-77
2023/06/22 10:50:18;;;;;;;;;13.25;12.00;;;;;;;;5094305;27;45587;-77
2023/06/22 10:52:46;;;;;;;;;14.00;11.25;;;;;;;;5080426;27;47729;-78
2023/06/22 10:55:11;;;;;;;;;13.25;10.25;;;;;;;;5092933;27;45479;-78
2023/06/22 10:57:38;;;;;;;;;11.25;11.25;;;;;;;;5083908;27;45218;-78
2023/06/22 11:00:23;;;;;;;;;14.50;12.25;;;;;;;;5082377;27;47327;-78
2023/06/22 11:02:48;;;;;;;;;11.75;11.75;;;;;;;;5089533;27;45503;-78
2023/06/22 11:05:14;;;;;;;;;12.75;10.50;;;;;;;;5067314;27;45738;-78
2023/06/22 11:07:46;;;;;;;;;8.00;8.00;;;;;;;;5089992;27;45660;-77
2023/06/22 11:10:12;;;;;;;;;8.25;8.25;;;;;;;;5071058;27;46189;-77
2023/06/22 11:12:37;;;;;;;;;10.00;7.50;;;;;;;;5093353;27;45646;-77
2023/06/22 11:15:03;;;;;;;;;8.75;8.75;;;;;;;;5086448;27;45934;-78
2023/06/22 11:17:29;;;;;;;;;13.25;11.50;;;;;;;;5088742;27;45464;-75
2023/06/22 11:19:58;;;;;;;;;12.25;12.25;;;;;;;;5092206;27;45550;-78
2023/06/22 11:22:55;;;;;;;;;11.75;10.00;;;;;;;;5077987;27;45900;-78
2023/06/22 11:25:42;;;;;;;;;13.50;11.75;;;;;;;;5091868;27;46164;-79
2023/06/22 11:28:09;;;;;;;;;9.75;8.50;;;;;;;;5089062;27;45724;-77
2023/06/22 11:30:34;;;;;;;;;10.75;8.00;;;;;;;;5097559;27;45455;-75
2023/06/22 11:33:00;;;;;;;;;9.75;9.75;;;;;;;;5101881;27;46170;-78
2023/06/22 11:35:28;;;;;;;;;14.00;11.25;;;;;;;;5092410;27;45668;-77
2023/06/22 11:37:53;;;;;;;;;14.00;13.50;;;;;;;;5073006;27;45480;-78
2023/06/22 11:40:27;;;;;;;;;9.25;9.25;;;;;;;;5076889;27;46558;-77
2023/06/22 11:42:59;;;;;;;;;13.00;13.00;;;;;;;;5104908;27;45512;-78
2023/06/22 11:45:25;;;;;;;;;10.75;10.75;;;;;;;;5078832;27;46327;-77
2023/06/22 11:47:50;;;;;;;;;13.00;13.00;;;;;;;;5091339;27;45403;-79
2023/06/22 11:50:15;;;;;;;;;12.75;10.25;;;;;;;;5062759;27;46028;-81
2023/06/22 11:52:41;;;;;;;;;14.50;11.75;;;;;;;;5084232;27;45954;-77
2023/06/22 11:55:06;;;;;;;;;14.25;12.00;;;;;;;;5086147;27;45561;-73
2023/06/22 11:57:35;;;;;;;;;13.25;13.25;;;;;;;;5082444;27;45780;-74
2023/06/22 12:00:06;;;;;;;;;15.00;12.75;;;;;;;;5086199;27;45519;-76
2023/06/22 12:02:31;;;;;;;;;11.25;9.75;;;;;;;;5062584;27;47206;-77
2023/06/22 12:04:58;;;;;;;;;12.50;12.50;;;;;;;;5080116;27;45538;-77
2023/06/22 12:07:23;;;;;;;;;14.50;13.25;;;;;;;;5086781;27;45744;-77
2023/06/22 12:09:48;;;;;;;;;11.25;11.25;;;;;;;;5064973;27;45633;-76
2023/06/22 12:12:14;;;;;;;;;10.50;10.50;;;;;;;;5086964;27;45518;-76
2023/06/22 12:14:39;;;;;;;;;14.25;10.50;;;;;;;;5084321;27;45540;-75
2023/06/22 12:17:04;;;;;;;;;11.00;11.00;;;;;;;;5081826;27;45945;-76
2023/06/22 12:19:29;;;;;;;;;10.25;10.25;;;;;;;;5097124;27;46417;-75
2023/06/22 12:21:55;;;;;;;;;13.25;11.75;;;;;;;;5083885;27;46103;-76
2023/06/22 12:24:20;;;;;;;;;12.50;11.50;;;;;;;;5083952;27;45672;-76
2023/06/22 12:26:45;;;;;;;;;13.25;12.25;;;;;;;;5069906;28;45713;-75
2023/06/22 12:29:11;;;;;;;;;10.50;8.25;;;;;;;;5085389;27;45654;-77
2023/06/22 12:31:38;;;;;;;;;13.25;11.25;;;;;;;;5061409;27;47631;-76
2023/06/22 12:34:04;;;;;;;;;13.00;8.75;;;;;;;;5089217;27;45498;-76
2023/06/22 12:36:29;;;;;;;;;10.75;10.00;;;;;;;;5083208;27;45660;-75
2023/06/22 12:38:54;;;;;;;;;10.75;10.75;;;;;;;;5081867;27;45399;-75
2023/06/22 12:41:19;;;;;;;;;15.00;13.50;;;;;;;;5081658;27;45443;-76
2023/06/22 12:43:46;;;;;;;;;10.50;10.50;;;;;;;;5072022;27;45760;-77
2023/06/22 12:46:11;;;;;;;;;17.25;15.75;;;;;;;;5090659;27;45930;-78
2023/06/22 12:48:41;;;;;;;;;12.75;11.00;;;;;;;;5083783;27;45545;-76
2023/06/22 12:51:06;;;;;;;;;15.00;13.75;;;;;;;;5067463;27;47433;-77
2023/06/22 12:53:32;;;;;;;;;14.25;12.50;;;;;;;;5086384;27;45473;-75
2023/06/22 12:55:58;;;;;;;;;12.33;12.33;;;;;;;;5093425;27;45745;-76
2023/06/22 12:58:23;;;;;;;;;15.50;14.50;;;;;;;;5096484;27;46679;-75
2023/06/22 13:00:48;;;;;;;;;15.75;12.50;;;;;;;;5087772;27;45723;-74
2023/06/22 13:03:14;;;;;;;;;12.50;11.50;;;;;;;;5085697;27;45642;-77
2023/06/22 13:05:39;;;;;;;;;12.00;12.00;;;;;;;;5084572;27;45516;-77
2023/06/22 13:08:04;;;;;;;;;13.25;12.50;;;;;;;;5089541;27;46184;-76
2023/06/22 13:10:30;;;;;;;;;13.00;13.00;;;;;;;;5080128;27;45530;-76
2023/06/22 13:13:00;;;;;;;;;20.75;16.00;;;;;;;;5080048;27;45562;-75
2023/06/22 13:15:25;;;;;;;;;15.75;14.75;;;;;;;;5066334;27;45881;-76
2023/06/22 13:17:51;;;;;;;;;15.25;14.25;;;;;;;;5083611;27;45446;-75
2023/06/22 13:20:16;;;;;;;;;19.00;15.67;;;;;;;;5081763;27;46038;-75
2023/06/22 13:22:43;;;;;;;;;15.33;14.00;;;;;;;;5078501;27;46354;-77
2023/06/22 13:25:11;;;;;;;;;16.67;14.00;;;;;;;;5085356;27;45704;-76
2023/06/22 13:27:37;;;;;;;;;14.75;14.25;;;;;;;;5060835;27;46179;-77
2023/06/22 13:30:02;;;;;;;;;12.75;12.00;;;;;;;;5074345;27;45740;-77
2023/06/22 13:32:28;;;;;;;;;16.50;15.50;;;;;;;;5062178;27;45488;-76
2023/06/22 13:34:53;;;;;;;;;21.00;16.00;;;;;;;;5073666;27;46205;-78
2023/06/22 13:37:19;;;;;;;;;16.75;14.50;;;;;;;;5094140;27;45864;-77
2023/06/22 13:39:44;;;;;;;;;16.75;14.75;;;;;;;;5084302;27;45420;-76
2023/06/22 13:42:09;;;;;;;;;18.75;13.75;;;;;;;;5071416;27;46056;-76
2023/06/22 13:44:35;;;;;;;;;16.00;13.25;;;;;;;;5075257;27;45425;-76
2023/06/22 13:47:00;;;;;;;;;9.50;8.50;;;;;;;;5087890;27;45479;-75
2023/06/22 13:49:25;;;;;;;;;13.25;13.25;;;;;;;;5082694;27;45337;-76
2023/06/22 13:51:51;;;;;;;;;18.33;14.67;;;;;;;;5075853;27;45279;-77
2023/06/22 13:54:16;;;;;;;;;11.75;11.75;;;;;;;;5093519;27;45765;-76
2023/06/22 13:56:42;;;;;;;;;15.00;11.25;;;;;;;;5100166;27;45300;-78
2023/06/22 13:59:09;;;;;;;;;11.00;11.00;;;;;;;;5081221;27;46479;-77
2023/06/22 14:01:34;;;;;;;;;14.25;12.25;;;;;;;;5084428;27;45956;-76
2023/06/22 14:04:01;;;;;;;;;13.25;11.00;;;;;;;;5091136;27;46006;-76
2023/06/22 14:06:26;;;;;;;;;9.00;9.00;;;;;;;;5077799;27;45592;-76
2023/06/22 14:08:52;;;;;;;;;12.75;12.75;;;;;;;;5083027;27;45634;-75
2023/06/22 14:11:17;;;;;;;;;10.25;10.25;;;;;;;;5086219;27;46036;-75
2023/06/22 14:13:42;;;;;;;;;11.25;10.00;;;;;;;;5082445;27;46107;-76
2023/06/22 14:16:08;;;;;;;;;13.50;11.25;;;;;;;;5089625;27;45339;-75
2023/06/22 14:18:33;;;;;;;;;12.75;9.25;;;;;;;;5073557;27;47317;-76
2023/06/22 14:20:58;;;;;;;;;8.00;8.00;;;;;;;;5087169;27;45428;-80
2023/06/22 14:23:24;;;;;;;;;7.75;7.75;;;;;;;;5093088;27;45416;-78
2023/06/22 14:25:49;;;;;;;;;11.00;9.50;;;;;;;;5083583;27;45946;-78
2023/06/22 14:28:16;;;;;;;;;8.75;8.25;;;;;;;;5088931;27;45995;-76
2023/06/22 14:30:41;;;;;;;;;9.75;8.00;;;;;;;;5084629;27;45683;-76
2023/06/22 14:33:06;;;;;;;;;10.00;9.00;;;;;;;;5089611;27;45843;-76